sensor_id;sensor_type;location;lat;lon;timestamp;P1;durP1;ratioP1;P2;durP2;ratioP2
26311;SDS011;14019;56.964;24.016;2023-08-21T00:01:35;27.67;;;17.30;;
26311;SDS011;14019;56.964;24.016;2023-08-21T00:04:23;26.55;;;16.35;;
26311;SDS011;14019;56.964;24.016;2023-08-21T00:07:09;25.40;;;16.33;;
26311;SDS011;14019;56.964;24.016;2023-08-21T00:09:57;24.02;;;16.20;;
26311;SDS011;14019;56.964;24.016;2023-08-21T00:12:44;22.55;;;15.68;;
26311;SDS011;14019;56.964;24.016;2023-08-21T00:15:30;26.95;;;16.67;;
26311;SDS011;14019;56.964;24.016;2023-08-21T00:18:17;29.45;;;18.40;;
26311;SDS011;14019;56.964;24.016;2023-08-21T00:21:04;24.48;;;16.95;;
26311;SDS011;14019;56.964;24.016;2023-08-21T00:23:51;27.80;;;17.23;;
26311;SDS011;14019;56.964;24.016;2023-08-21T00:26:38;24.88;;;17.02;;
26311;SDS011;14019;56.964;24.016;2023-08-21T00:29:24;26.38;;;16.20;;
26311;SDS011;14019;56.964;24.016;2023-08-21T00:32:11;23.75;;;16.73;;
26311;SDS011;14019;56.964;24.016;2023-08-21T00:34:57;24.73;;;15.82;;
26311;SDS011;14019;56.964;24.016;2023-08-21T00:37:44;23.75;;;16.80;;
26311;SDS011;14019;56.964;24.016;2023-08-21T00:40:31;25.48;;;16.40;;
26311;SDS011;14019;56.964;24.016;2023-08-21T00:43:18;23.10;;;15.80;;
26311;SDS011;14019;56.964;24.016;2023-08-21T00:46:06;22.40;;;16.25;;
26311;SDS011;14019;56.964;24.016;2023-08-21T00:48:53;21.00;;;14.77;;
26311;SDS011;14019;56.964;24.016;2023-08-21T00:51:39;23.88;;;15.35;;
26311;SDS011;14019;56.964;24.016;2023-08-21T00:54:27;21.48;;;15.50;;
26311;SDS011;14019;56.964;24.016;2023-08-21T00:57:14;23.00;;;16.10;;
26311;SDS011;14019;56.964;24.016;2023-08-21T01:00:00;25.88;;;16.42;;
26311;SDS011;14019;56.964;24.016;2023-08-21T01:02:47;21.45;;;15.60;;
26311;SDS011;14019;56.964;24.016;2023-08-21T01:05:34;24.17;;;15.65;;
26311;SDS011;14019;56.964;24.016;2023-08-21T01:08:30;20.73;;;15.40;;
26311;SDS011;14019;56.964;24.016;2023-08-21T01:11:23;24.88;;;15.90;;
26311;SDS011;14019;56.964;24.016;2023-08-21T01:14:21;24.83;;;16.23;;
26311;SDS011;14019;56.964;24.016;2023-08-21T01:17:10;22.55;;;15.38;;
26311;SDS011;14019;56.964;24.016;2023-08-21T01:19:59;27.75;;;16.77;;
26311;SDS011;14019;56.964;24.016;2023-08-21T01:22:46;24.15;;;15.90;;
26311;SDS011;14019;56.964;24.016;2023-08-21T01:25:33;22.50;;;16.05;;
26311;SDS011;14019;56.964;24.016;2023-08-21T01:35:18;24.30;;;16.67;;
26311;SDS011;14019;56.964;24.016;2023-08-21T01:38:07;27.48;;;16.80;;
26311;SDS011;14019;56.964;24.016;2023-08-21T01:40:55;25.05;;;16.88;;
26311;SDS011;14019;56.964;24.016;2023-08-21T01:43:41;26.38;;;16.80;;
26311;SDS011;14019;56.964;24.016;2023-08-21T01:46:28;31.65;;;17.40;;
26311;SDS011;14019;56.964;24.016;2023-08-21T01:49:14;25.08;;;17.23;;
26311;SDS011;14019;56.964;24.016;2023-08-21T01:52:03;28.92;;;18.30;;
26311;SDS011;14019;56.964;24.016;2023-08-21T01:54:50;26.98;;;17.60;;
26311;SDS011;14019;56.964;24.016;2023-08-21T01:57:37;26.65;;;17.58;;
26311;SDS011;14019;56.964;24.016;2023-08-21T02:00:23;26.33;;;16.95;;
26311;SDS011;14019;56.964;24.016;2023-08-21T02:03:09;27.05;;;16.98;;
26311;SDS011;14019;56.964;24.016;2023-08-21T02:05:56;25.55;;;16.77;;
26311;SDS011;14019;56.964;24.016;2023-08-21T02:08:49;25.15;;;15.38;;
26311;SDS011;14019;56.964;24.016;2023-08-21T02:11:35;25.17;;;16.23;;
26311;SDS011;14019;56.964;24.016;2023-08-21T02:14:22;24.25;;;16.60;;
26311;SDS011;14019;56.964;24.016;2023-08-21T02:17:08;24.35;;;16.67;;
26311;SDS011;14019;56.964;24.016;2023-08-21T02:19:55;28.20;;;16.90;;
26311;SDS011;14019;56.964;24.016;2023-08-21T02:22:41;26.08;;;16.70;;
26311;SDS011;14019;56.964;24.016;2023-08-21T02:25:29;25.35;;;16.20;;
26311;SDS011;14019;56.964;24.016;2023-08-21T02:28:15;25.13;;;16.85;;
26311;SDS011;14019;56.964;24.016;2023-08-21T02:31:04;23.02;;;16.38;;
26311;SDS011;14019;56.964;24.016;2023-08-21T02:33:52;23.67;;;15.73;;
26311;SDS011;14019;56.964;24.016;2023-08-21T02:36:38;24.20;;;16.88;;
26311;SDS011;14019;56.964;24.016;2023-08-21T02:39:24;25.55;;;17.50;;
26311;SDS011;14019;56.964;24.016;2023-08-21T02:42:11;25.17;;;16.55;;
26311;SDS011;14019;56.964;24.016;2023-08-21T02:44:57;27.02;;;16.77;;
26311;SDS011;14019;56.964;24.016;2023-08-21T02:47:44;27.45;;;16.75;;
26311;SDS011;14019;56.964;24.016;2023-08-21T02:50:30;25.58;;;17.73;;
26311;SDS011;14019;56.964;24.016;2023-08-21T02:53:18;24.95;;;16.23;;
26311;SDS011;14019;56.964;24.016;2023-08-21T02:56:05;23.67;;;16.38;;
26311;SDS011;14019;56.964;24.016;2023-08-21T02:58:51;21.63;;;15.90;;
26311;SDS011;14019;56.964;24.016;2023-08-21T03:01:38;25.98;;;16.92;;
26311;SDS011;14019;56.964;24.016;2023-08-21T03:04:24;27.40;;;17.92;;
26311;SDS011;14019;56.964;24.016;2023-08-21T03:07:10;24.65;;;16.08;;
26311;SDS011;14019;56.964;24.016;2023-08-21T03:09:57;25.48;;;16.70;;
26311;SDS011;14019;56.964;24.016;2023-08-21T03:12:43;23.65;;;17.20;;
26311;SDS011;14019;56.964;24.016;2023-08-21T03:15:29;24.90;;;17.27;;
26311;SDS011;14019;56.964;24.016;2023-08-21T03:18:16;25.25;;;16.95;;
26311;SDS011;14019;56.964;24.016;2023-08-21T03:21:03;23.85;;;16.25;;
26311;SDS011;14019;56.964;24.016;2023-08-21T03:23:56;26.23;;;16.83;;
26311;SDS011;14019;56.964;24.016;2023-08-21T03:26:49;29.67;;;17.35;;
26311;SDS011;14019;56.964;24.016;2023-08-21T03:29:35;22.48;;;16.65;;
26311;SDS011;14019;56.964;24.016;2023-08-21T03:32:22;24.00;;;16.17;;
26311;SDS011;14019;56.964;24.016;2023-08-21T03:35:09;23.23;;;15.80;;
26311;SDS011;14019;56.964;24.016;2023-08-21T03:37:56;21.83;;;16.00;;
26311;SDS011;14019;56.964;24.016;2023-08-21T03:40:45;21.45;;;15.15;;
26311;SDS011;14019;56.964;24.016;2023-08-21T03:43:32;27.45;;;15.75;;
26311;SDS011;14019;56.964;24.016;2023-08-21T03:46:20;25.52;;;16.50;;
26311;SDS011;14019;56.964;24.016;2023-08-21T03:49:07;22.38;;;15.70;;
26311;SDS011;14019;56.964;24.016;2023-08-21T03:51:53;21.05;;;15.15;;
26311;SDS011;14019;56.964;24.016;2023-08-21T03:54:39;21.70;;;16.00;;
26311;SDS011;14019;56.964;24.016;2023-08-21T03:57:26;21.60;;;15.20;;
26311;SDS011;14019;56.964;24.016;2023-08-21T04:00:13;21.77;;;15.50;;
26311;SDS011;14019;56.964;24.016;2023-08-21T04:03:00;22.52;;;15.77;;
26311;SDS011;14019;56.964;24.016;2023-08-21T04:05:47;21.30;;;16.13;;
26311;SDS011;14019;56.964;24.016;2023-08-21T04:08:34;19.60;;;14.48;;
26311;SDS011;14019;56.964;24.016;2023-08-21T04:11:21;22.33;;;15.43;;
26311;SDS011;14019;56.964;24.016;2023-08-21T04:14:07;25.55;;;16.20;;
26311;SDS011;14019;56.964;24.016;2023-08-21T04:16:54;23.67;;;16.17;;
26311;SDS011;14019;56.964;24.016;2023-08-21T04:19:40;24.90;;;16.17;;
26311;SDS011;14019;56.964;24.016;2023-08-21T04:22:26;25.45;;;16.27;;
26311;SDS011;14019;56.964;24.016;2023-08-21T04:25:13;21.85;;;15.18;;
26311;SDS011;14019;56.964;24.016;2023-08-21T04:27:59;25.17;;;15.18;;
26311;SDS011;14019;56.964;24.016;2023-08-21T04:30:46;21.25;;;15.25;;
26311;SDS011;14019;56.964;24.016;2023-08-21T04:33:33;26.92;;;16.55;;
26311;SDS011;14019;56.964;24.016;2023-08-21T04:36:21;23.98;;;15.85;;
26311;SDS011;14019;56.964;24.016;2023-08-21T04:39:08;30.08;;;16.17;;
26311;SDS011;14019;56.964;24.016;2023-08-21T04:41:54;22.60;;;15.90;;
26311;SDS011;14019;56.964;24.016;2023-08-21T04:44:41;30.00;;;16.75;;
26311;SDS011;14019;56.964;24.016;2023-08-21T04:47:29;30.30;;;17.42;;
26311;SDS011;14019;56.964;24.016;2023-08-21T04:50:18;26.80;;;17.25;;
26311;SDS011;14019;56.964;24.016;2023-08-21T04:53:04;29.55;;;17.05;;
26311;SDS011;14019;56.964;24.016;2023-08-21T04:55:51;28.52;;;17.02;;
26311;SDS011;14019;56.964;24.016;2023-08-21T04:58:38;29.67;;;17.15;;
26311;SDS011;14019;56.964;24.016;2023-08-21T05:01:27;29.35;;;17.60;;
26311;SDS011;14019;56.964;24.016;2023-08-21T05:04:15;26.65;;;16.65;;
26311;SDS011;14019;56.964;24.016;2023-08-21T05:07:03;28.88;;;17.23;;
26311;SDS011;14019;56.964;24.016;2023-08-21T05:09:49;27.02;;;17.58;;
26311;SDS011;14019;56.964;24.016;2023-08-21T05:12:38;28.23;;;17.27;;
26311;SDS011;14019;56.964;24.016;2023-08-21T05:15:25;28.33;;;16.75;;
26311;SDS011;14019;56.964;24.016;2023-08-21T05:18:12;26.48;;;17.35;;
26311;SDS011;14019;56.964;24.016;2023-08-21T05:20:59;26.42;;;17.27;;
26311;SDS011;14019;56.964;24.016;2023-08-21T05:23:46;23.90;;;15.60;;
26311;SDS011;14019;56.964;24.016;2023-08-21T05:26:32;27.27;;;17.23;;
26311;SDS011;14019;56.964;24.016;2023-08-21T05:29:20;22.67;;;16.20;;
26311;SDS011;14019;56.964;24.016;2023-08-21T05:32:06;26.67;;;16.15;;
26311;SDS011;14019;56.964;24.016;2023-08-21T05:34:53;24.05;;;16.35;;
26311;SDS011;14019;56.964;24.016;2023-08-21T05:37:39;24.20;;;15.55;;
26311;SDS011;14019;56.964;24.016;2023-08-21T05:40:26;22.33;;;14.60;;
26311;SDS011;14019;56.964;24.016;2023-08-21T05:43:14;21.17;;;14.40;;
26311;SDS011;14019;56.964;24.016;2023-08-21T05:46:01;22.83;;;14.68;;
26311;SDS011;14019;56.964;24.016;2023-08-21T05:48:48;20.05;;;14.88;;
26311;SDS011;14019;56.964;24.016;2023-08-21T05:51:35;22.25;;;14.65;;
26311;SDS011;14019;56.964;24.016;2023-08-21T05:54:22;20.75;;;14.18;;
26311;SDS011;14019;56.964;24.016;2023-08-21T05:57:09;19.73;;;13.90;;
26311;SDS011;14019;56.964;24.016;2023-08-21T05:59:56;21.02;;;13.70;;
26311;SDS011;14019;56.964;24.016;2023-08-21T06:02:45;21.05;;;15.13;;
26311;SDS011;14019;56.964;24.016;2023-08-21T06:05:51;19.52;;;14.68;;
26311;SDS011;14019;56.964;24.016;2023-08-21T06:08:38;19.90;;;14.35;;
26311;SDS011;14019;56.964;24.016;2023-08-21T06:11:24;22.60;;;13.98;;
26311;SDS011;14019;56.964;24.016;2023-08-21T06:14:11;17.60;;;13.65;;
26311;SDS011;14019;56.964;24.016;2023-08-21T06:17:02;18.08;;;13.60;;
26311;SDS011;14019;56.964;24.016;2023-08-21T06:19:48;22.70;;;14.15;;
26311;SDS011;14019;56.964;24.016;2023-08-21T06:22:35;21.40;;;14.15;;
26311;SDS011;14019;56.964;24.016;2023-08-21T06:25:22;18.48;;;14.07;;
26311;SDS011;14019;56.964;24.016;2023-08-21T06:28:08;18.70;;;14.30;;
26311;SDS011;14019;56.964;24.016;2023-08-21T06:30:57;16.90;;;13.32;;
26311;SDS011;14019;56.964;24.016;2023-08-21T06:33:44;17.60;;;13.05;;
26311;SDS011;14019;56.964;24.016;2023-08-21T06:36:31;17.80;;;12.88;;
26311;SDS011;14019;56.964;24.016;2023-08-21T06:39:18;17.90;;;12.65;;
26311;SDS011;14019;56.964;24.016;2023-08-21T06:42:07;16.13;;;12.10;;
26311;SDS011;14019;56.964;24.016;2023-08-21T06:45:00;17.75;;;12.75;;
26311;SDS011;14019;56.964;24.016;2023-08-21T06:47:46;14.98;;;11.48;;
26311;SDS011;14019;56.964;24.016;2023-08-21T06:50:32;15.48;;;10.70;;
26311;SDS011;14019;56.964;24.016;2023-08-21T06:53:19;14.63;;;11.32;;
26311;SDS011;14019;56.964;24.016;2023-08-21T06:56:05;14.55;;;11.38;;
26311;SDS011;14019;56.964;24.016;2023-08-21T06:58:52;17.10;;;11.32;;
26311;SDS011;14019;56.964;24.016;2023-08-21T07:01:40;14.63;;;11.82;;
26311;SDS011;14019;56.964;24.016;2023-08-21T07:04:27;14.43;;;10.93;;
26311;SDS011;14019;56.964;24.016;2023-08-21T07:07:13;15.25;;;11.95;;
26311;SDS011;14019;56.964;24.016;2023-08-21T07:09:59;20.13;;;13.15;;
26311;SDS011;14019;56.964;24.016;2023-08-21T07:12:46;16.30;;;12.77;;
26311;SDS011;14019;56.964;24.016;2023-08-21T07:15:32;14.90;;;11.82;;
26311;SDS011;14019;56.964;24.016;2023-08-21T07:18:19;15.65;;;11.50;;
26311;SDS011;14019;56.964;24.016;2023-08-21T07:21:06;15.30;;;11.90;;
26311;SDS011;14019;56.964;24.016;2023-08-21T07:24:12;13.90;;;10.93;;
26311;SDS011;14019;56.964;24.016;2023-08-21T07:26:59;12.90;;;10.25;;
26311;SDS011;14019;56.964;24.016;2023-08-21T07:29:45;13.73;;;9.88;;
26311;SDS011;14019;56.964;24.016;2023-08-21T07:32:31;15.02;;;10.45;;
26311;SDS011;14019;56.964;24.016;2023-08-21T07:35:17;13.43;;;10.60;;
26311;SDS011;14019;56.964;24.016;2023-08-21T07:38:04;12.82;;;9.60;;
26311;SDS011;14019;56.964;24.016;2023-08-21T07:40:51;12.38;;;9.73;;
26311;SDS011;14019;56.964;24.016;2023-08-21T07:43:41;11.82;;;9.60;;
26311;SDS011;14019;56.964;24.016;2023-08-21T07:46:28;12.52;;;9.60;;
26311;SDS011;14019;56.964;24.016;2023-08-21T07:49:15;14.02;;;9.70;;
26311;SDS011;14019;56.964;24.016;2023-08-21T07:52:02;11.82;;;9.48;;
26311;SDS011;14019;56.964;24.016;2023-08-21T07:54:53;13.82;;;9.23;;
26311;SDS011;14019;56.964;24.016;2023-08-21T07:57:40;14.65;;;9.02;;
26311;SDS011;14019;56.964;24.016;2023-08-21T08:00:27;12.32;;;9.88;;
26311;SDS011;14019;56.964;24.016;2023-08-21T08:03:13;14.77;;;9.75;;
26311;SDS011;14019;56.964;24.016;2023-08-21T08:05:59;13.68;;;10.13;;
26311;SDS011;14019;56.964;24.016;2023-08-21T08:08:45;12.10;;;10.05;;
26311;SDS011;14019;56.964;24.016;2023-08-21T08:11:33;14.23;;;10.30;;
26311;SDS011;14019;56.964;24.016;2023-08-21T08:14:20;13.05;;;10.18;;
26311;SDS011;14019;56.964;24.016;2023-08-21T08:17:06;13.50;;;10.02;;
26311;SDS011;14019;56.964;24.016;2023-08-21T08:19:52;18.48;;;10.35;;
26311;SDS011;14019;56.964;24.016;2023-08-21T08:22:41;12.68;;;9.18;;
26311;SDS011;14019;56.964;24.016;2023-08-21T08:25:28;12.98;;;9.02;;
26311;SDS011;14019;56.964;24.016;2023-08-21T08:28:14;11.85;;;9.32;;
26311;SDS011;14019;56.964;24.016;2023-08-21T08:31:00;11.63;;;8.75;;
26311;SDS011;14019;56.964;24.016;2023-08-21T08:33:47;12.95;;;10.30;;
26311;SDS011;14019;56.964;24.016;2023-08-21T08:36:34;12.02;;;8.70;;
26311;SDS011;14019;56.964;24.016;2023-08-21T08:39:21;15.27;;;9.18;;
26311;SDS011;14019;56.964;24.016;2023-08-21T08:42:07;11.05;;;8.60;;
26311;SDS011;14019;56.964;24.016;2023-08-21T08:44:54;12.60;;;8.70;;
26311;SDS011;14019;56.964;24.016;2023-08-21T08:47:41;9.77;;;8.23;;
26311;SDS011;14019;56.964;24.016;2023-08-21T08:50:29;9.88;;;8.35;;
26311;SDS011;14019;56.964;24.016;2023-08-21T08:53:16;7.72;;;6.80;;
26311;SDS011;14019;56.964;24.016;2023-08-21T08:56:04;9.73;;;7.40;;
26311;SDS011;14019;56.964;24.016;2023-08-21T08:58:50;8.80;;;7.47;;
26311;SDS011;14019;56.964;24.016;2023-08-21T09:01:37;9.35;;;7.40;;
26311;SDS011;14019;56.964;24.016;2023-08-21T09:04:24;10.00;;;8.05;;
26311;SDS011;14019;56.964;24.016;2023-08-21T09:07:11;8.95;;;7.40;;
26311;SDS011;14019;56.964;24.016;2023-08-21T09:10:00;9.88;;;7.97;;
26311;SDS011;14019;56.964;24.016;2023-08-21T09:12:48;15.52;;;8.82;;
26311;SDS011;14019;56.964;24.016;2023-08-21T09:15:35;10.90;;;8.32;;
26311;SDS011;14019;56.964;24.016;2023-08-21T09:18:26;11.68;;;8.60;;
26311;SDS011;14019;56.964;24.016;2023-08-21T09:21:15;12.82;;;8.68;;
26311;SDS011;14019;56.964;24.016;2023-08-21T09:24:02;10.10;;;8.63;;
26311;SDS011;14019;56.964;24.016;2023-08-21T09:26:50;11.98;;;8.95;;
26311;SDS011;14019;56.964;24.016;2023-08-21T09:29:40;12.63;;;8.93;;
26311;SDS011;14019;56.964;24.016;2023-08-21T09:32:28;11.45;;;8.65;;
26311;SDS011;14019;56.964;24.016;2023-08-21T09:35:14;12.80;;;8.88;;
26311;SDS011;14019;56.964;24.016;2023-08-21T09:38:02;9.70;;;8.25;;
26311;SDS011;14019;56.964;24.016;2023-08-21T09:40:52;11.82;;;8.65;;
26311;SDS011;14019;56.964;24.016;2023-08-21T09:43:42;10.85;;;8.35;;
26311;SDS011;14019;56.964;24.016;2023-08-21T09:46:28;11.00;;;8.23;;
26311;SDS011;14019;56.964;24.016;2023-08-21T09:49:14;11.55;;;8.30;;
26311;SDS011;14019;56.964;24.016;2023-08-21T09:52:03;10.70;;;8.20;;
26311;SDS011;14019;56.964;24.016;2023-08-21T09:54:51;16.00;;;8.13;;
26311;SDS011;14019;56.964;24.016;2023-08-21T09:57:39;9.43;;;7.30;;
26311;SDS011;14019;56.964;24.016;2023-08-21T10:00:34;11.18;;;8.27;;
26311;SDS011;14019;56.964;24.016;2023-08-21T10:03:22;9.55;;;7.68;;
26311;SDS011;14019;56.964;24.016;2023-08-21T10:06:15;11.52;;;8.13;;
26311;SDS011;14019;56.964;24.016;2023-08-21T10:09:07;9.98;;;7.28;;
26311;SDS011;14019;56.964;24.016;2023-08-21T10:11:54;9.23;;;6.93;;
26311;SDS011;14019;56.964;24.016;2023-08-21T10:14:42;11.57;;;7.47;;
26311;SDS011;14019;56.964;24.016;2023-08-21T10:17:30;8.95;;;7.20;;
26311;SDS011;14019;56.964;24.016;2023-08-21T10:20:20;8.73;;;7.43;;
26311;SDS011;14019;56.964;24.016;2023-08-21T10:23:10;9.48;;;7.78;;
26311;SDS011;14019;56.964;24.016;2023-08-21T10:26:09;9.55;;;7.68;;
26311;SDS011;14019;56.964;24.016;2023-08-21T10:29:00;8.85;;;7.10;;
26311;SDS011;14019;56.964;24.016;2023-08-21T10:31:57;11.07;;;7.05;;
26311;SDS011;14019;56.964;24.016;2023-08-21T10:34:44;8.70;;;6.85;;
26311;SDS011;14019;56.964;24.016;2023-08-21T10:37:45;9.75;;;7.00;;
26311;SDS011;14019;56.964;24.016;2023-08-21T10:41:03;9.52;;;6.68;;
26311;SDS011;14019;56.964;24.016;2023-08-21T10:43:50;9.07;;;6.88;;
26311;SDS011;14019;56.964;24.016;2023-08-21T10:46:52;8.90;;;6.97;;
26311;SDS011;14019;56.964;24.016;2023-08-21T10:49:39;11.25;;;7.00;;
26311;SDS011;14019;56.964;24.016;2023-08-21T10:55:13;10.77;;;7.07;;
26311;SDS011;14019;56.964;24.016;2023-08-21T10:58:00;9.10;;;7.28;;
26311;SDS011;14019;56.964;24.016;2023-08-21T11:00:47;8.98;;;7.47;;
26311;SDS011;14019;56.964;24.016;2023-08-21T11:03:34;11.25;;;7.45;;
26311;SDS011;14019;56.964;24.016;2023-08-21T11:06:20;7.60;;;6.80;;
26311;SDS011;14019;56.964;24.016;2023-08-21T11:09:14;12.25;;;6.82;;
26311;SDS011;14019;56.964;24.016;2023-08-21T11:12:10;10.40;;;7.60;;
26311;SDS011;14019;56.964;24.016;2023-08-21T11:14:57;10.45;;;7.35;;
26311;SDS011;14019;56.964;24.016;2023-08-21T11:20:43;9.98;;;6.90;;
26311;SDS011;14019;56.964;24.016;2023-08-21T11:23:33;10.23;;;6.40;;
26311;SDS011;14019;56.964;24.016;2023-08-21T11:26:21;9.13;;;6.53;;
26311;SDS011;14019;56.964;24.016;2023-08-21T11:29:08;9.10;;;6.95;;
26311;SDS011;14019;56.964;24.016;2023-08-21T11:31:55;8.90;;;6.68;;
26311;SDS011;14019;56.964;24.016;2023-08-21T11:34:42;8.75;;;5.85;;
26311;SDS011;14019;56.964;24.016;2023-08-21T11:37:29;7.13;;;6.13;;
26311;SDS011;14019;56.964;24.016;2023-08-21T11:40:15;9.00;;;6.68;;
26311;SDS011;14019;56.964;24.016;2023-08-21T11:43:03;8.45;;;5.53;;
26311;SDS011;14019;56.964;24.016;2023-08-21T11:45:51;9.25;;;6.30;;
26311;SDS011;14019;56.964;24.016;2023-08-21T11:48:44;8.60;;;6.32;;
26311;SDS011;14019;56.964;24.016;2023-08-21T11:51:37;11.30;;;5.90;;
26311;SDS011;14019;56.964;24.016;2023-08-21T11:54:24;6.38;;;5.60;;
26311;SDS011;14019;56.964;24.016;2023-08-21T11:57:14;6.68;;;5.53;;
26311;SDS011;14019;56.964;24.016;2023-08-21T12:00:01;10.00;;;7.25;;
26311;SDS011;14019;56.964;24.016;2023-08-21T12:02:58;9.73;;;7.03;;
26311;SDS011;14019;56.964;24.016;2023-08-21T12:05:48;9.85;;;5.78;;
26311;SDS011;14019;56.964;24.016;2023-08-21T12:08:34;6.45;;;5.38;;
26311;SDS011;14019;56.964;24.016;2023-08-21T12:11:21;7.90;;;5.22;;
26311;SDS011;14019;56.964;24.016;2023-08-21T12:14:07;10.05;;;6.60;;
26311;SDS011;14019;56.964;24.016;2023-08-21T12:16:53;11.52;;;6.40;;
26311;SDS011;14019;56.964;24.016;2023-08-21T12:19:41;11.88;;;5.70;;
26311;SDS011;14019;56.964;24.016;2023-08-21T12:22:28;7.47;;;5.47;;
26311;SDS011;14019;56.964;24.016;2023-08-21T12:25:15;10.05;;;6.05;;
26311;SDS011;14019;56.964;24.016;2023-08-21T12:28:02;8.05;;;5.45;;
26311;SDS011;14019;56.964;24.016;2023-08-21T12:30:54;7.70;;;6.05;;
26311;SDS011;14019;56.964;24.016;2023-08-21T12:33:41;13.10;;;5.72;;
26311;SDS011;14019;56.964;24.016;2023-08-21T12:36:27;8.52;;;6.00;;
26311;SDS011;14019;56.964;24.016;2023-08-21T12:39:13;8.93;;;7.25;;
26311;SDS011;14019;56.964;24.016;2023-08-21T12:42:01;12.25;;;9.00;;
26311;SDS011;14019;56.964;24.016;2023-08-21T12:44:49;13.38;;;9.63;;
26311;SDS011;14019;56.964;24.016;2023-08-21T12:47:35;12.30;;;8.38;;
26311;SDS011;14019;56.964;24.016;2023-08-21T12:50:23;12.35;;;7.38;;
26311;SDS011;14019;56.964;24.016;2023-08-21T12:53:09;11.23;;;6.75;;
26311;SDS011;14019;56.964;24.016;2023-08-21T12:55:55;8.65;;;6.25;;
26311;SDS011;14019;56.964;24.016;2023-08-21T12:58:42;7.95;;;6.60;;
26311;SDS011;14019;56.964;24.016;2023-08-21T13:01:34;8.00;;;6.25;;
26311;SDS011;14019;56.964;24.016;2023-08-21T13:04:20;7.65;;;6.55;;
26311;SDS011;14019;56.964;24.016;2023-08-21T13:07:08;11.00;;;6.40;;
26311;SDS011;14019;56.964;24.016;2023-08-21T13:09:55;10.50;;;7.10;;
26311;SDS011;14019;56.964;24.016;2023-08-21T13:12:45;13.02;;;6.60;;
26311;SDS011;14019;56.964;24.016;2023-08-21T13:15:32;9.77;;;6.70;;
26311;SDS011;14019;56.964;24.016;2023-08-21T13:18:19;8.77;;;6.38;;
26311;SDS011;14019;56.964;24.016;2023-08-21T13:21:05;7.15;;;6.20;;
26311;SDS011;14019;56.964;24.016;2023-08-21T13:23:55;11.63;;;6.28;;
26311;SDS011;14019;56.964;24.016;2023-08-21T13:26:43;8.10;;;6.03;;
26311;SDS011;14019;56.964;24.016;2023-08-21T13:29:30;9.15;;;6.30;;
26311;SDS011;14019;56.964;24.016;2023-08-21T13:32:16;8.15;;;6.28;;
26311;SDS011;14019;56.964;24.016;2023-08-21T13:35:03;10.25;;;6.55;;
26311;SDS011;14019;56.964;24.016;2023-08-21T13:37:52;7.30;;;6.28;;
26311;SDS011;14019;56.964;24.016;2023-08-21T13:40:40;8.32;;;5.45;;
26311;SDS011;14019;56.964;24.016;2023-08-21T13:43:26;8.25;;;5.38;;
26311;SDS011;14019;56.964;24.016;2023-08-21T13:46:17;6.65;;;5.60;;
26311;SDS011;14019;56.964;24.016;2023-08-21T13:49:03;8.45;;;6.22;;
26311;SDS011;14019;56.964;24.016;2023-08-21T13:51:50;8.40;;;5.43;;
26311;SDS011;14019;56.964;24.016;2023-08-21T13:54:36;8.15;;;5.65;;
26311;SDS011;14019;56.964;24.016;2023-08-21T13:57:23;7.95;;;5.40;;
26311;SDS011;14019;56.964;24.016;2023-08-21T14:00:10;6.80;;;4.90;;
26311;SDS011;14019;56.964;24.016;2023-08-21T14:02:58;6.63;;;4.45;;
26311;SDS011;14019;56.964;24.016;2023-08-21T14:05:44;5.18;;;4.30;;
26311;SDS011;14019;56.964;24.016;2023-08-21T14:08:31;4.72;;;3.75;;
26311;SDS011;14019;56.964;24.016;2023-08-21T14:11:17;6.60;;;4.25;;
26311;SDS011;14019;56.964;24.016;2023-08-21T14:14:04;11.13;;;4.32;;
26311;SDS011;14019;56.964;24.016;2023-08-21T14:16:50;5.35;;;4.40;;
26311;SDS011;14019;56.964;24.016;2023-08-21T14:19:37;7.63;;;4.80;;
26311;SDS011;14019;56.964;24.016;2023-08-21T14:22:25;5.47;;;4.40;;
26311;SDS011;14019;56.964;24.016;2023-08-21T14:25:11;7.75;;;4.50;;
26311;SDS011;14019;56.964;24.016;2023-08-21T14:27:58;5.72;;;5.00;;
26311;SDS011;14019;56.964;24.016;2023-08-21T14:30:45;7.45;;;4.53;;
26311;SDS011;14019;56.964;24.016;2023-08-21T14:33:32;7.63;;;5.15;;
26311;SDS011;14019;56.964;24.016;2023-08-21T14:36:19;8.52;;;5.30;;
26311;SDS011;14019;56.964;24.016;2023-08-21T14:39:05;8.13;;;5.80;;
26311;SDS011;14019;56.964;24.016;2023-08-21T14:41:55;7.47;;;5.68;;
26311;SDS011;14019;56.964;24.016;2023-08-21T14:44:41;7.95;;;6.05;;
26311;SDS011;14019;56.964;24.016;2023-08-21T14:47:27;10.43;;;6.15;;
26311;SDS011;14019;56.964;24.016;2023-08-21T14:50:14;7.70;;;6.50;;
26311;SDS011;14019;56.964;24.016;2023-08-21T14:53:00;9.55;;;6.80;;
26311;SDS011;14019;56.964;24.016;2023-08-21T15:20:06;10.48;;;8.50;;
26311;SDS011;14019;56.964;24.016;2023-08-21T15:22:56;13.88;;;8.68;;
26311;SDS011;14019;56.964;24.016;2023-08-21T15:25:43;14.10;;;8.85;;
26311;SDS011;14019;56.964;24.016;2023-08-21T15:28:31;12.18;;;8.93;;
26311;SDS011;14019;56.964;24.016;2023-08-21T15:31:19;13.30;;;8.60;;
26311;SDS011;14019;56.964;24.016;2023-08-21T15:34:07;12.00;;;8.15;;
26311;SDS011;14019;56.964;24.016;2023-08-21T15:36:55;13.98;;;9.23;;
26311;SDS011;14019;56.964;24.016;2023-08-21T15:39:42;12.13;;;8.68;;
26311;SDS011;14019;56.964;24.016;2023-08-21T15:42:28;19.65;;;8.43;;
26311;SDS011;14019;56.964;24.016;2023-08-21T15:45:23;10.60;;;8.80;;
26311;SDS011;14019;56.964;24.016;2023-08-21T15:48:10;13.20;;;8.45;;
26311;SDS011;14019;56.964;24.016;2023-08-21T15:50:58;11.25;;;9.10;;
26311;SDS011;14019;56.964;24.016;2023-08-21T15:53:44;10.80;;;8.77;;
26311;SDS011;14019;56.964;24.016;2023-08-21T15:56:34;12.20;;;8.85;;
26311;SDS011;14019;56.964;24.016;2023-08-21T15:59:19;12.43;;;8.75;;
26311;SDS011;14019;56.964;24.016;2023-08-21T16:02:07;12.45;;;8.48;;
26311;SDS011;14019;56.964;24.016;2023-08-21T16:04:55;11.45;;;8.02;;
26311;SDS011;14019;56.964;24.016;2023-08-21T16:07:45;12.73;;;8.05;;
26311;SDS011;14019;56.964;24.016;2023-08-21T16:10:31;13.52;;;8.13;;
26311;SDS011;14019;56.964;24.016;2023-08-21T16:13:17;13.25;;;9.10;;
26311;SDS011;14019;56.964;24.016;2023-08-21T16:16:03;11.82;;;7.80;;
26311;SDS011;14019;56.964;24.016;2023-08-21T16:18:52;10.02;;;7.70;;
26311;SDS011;14019;56.964;24.016;2023-08-21T16:21:39;8.63;;;6.90;;
26311;SDS011;14019;56.964;24.016;2023-08-21T16:24:25;31.08;;;5.63;;
26311;SDS011;14019;56.964;24.016;2023-08-21T16:27:17;31.85;;;4.72;;
26311;SDS011;14019;56.964;24.016;2023-08-21T16:30:07;12.43;;;5.32;;
26311;SDS011;14019;56.964;24.016;2023-08-21T16:32:57;13.00;;;5.40;;
26311;SDS011;14019;56.964;24.016;2023-08-21T16:35:44;11.23;;;6.05;;
26311;SDS011;14019;56.964;24.016;2023-08-21T16:38:31;13.38;;;6.25;;
26311;SDS011;14019;56.964;24.016;2023-08-21T16:41:19;14.57;;;5.60;;
26311;SDS011;14019;56.964;24.016;2023-08-21T16:44:06;12.98;;;5.47;;
26311;SDS011;14019;56.964;24.016;2023-08-21T16:46:54;11.20;;;5.63;;
26311;SDS011;14019;56.964;24.016;2023-08-21T16:49:41;14.82;;;5.43;;
26311;SDS011;14019;56.964;24.016;2023-08-21T16:52:29;15.55;;;5.10;;
26311;SDS011;14019;56.964;24.016;2023-08-21T16:55:17;12.10;;;4.88;;